createdAt,value
2023-01-27T00:04:17.004Z,43.10
2023-01-27T00:09:20.273Z,41.30
2023-01-27T00:14:23.743Z,44.60
2023-01-27T00:19:27.251Z,41.70
2023-01-27T00:24:36.765Z,46.10
2023-01-27T00:29:41.045Z,43.00
2023-01-27T00:34:44.118Z,46.80
2023-01-27T00:39:47.417Z,41.10
2023-01-27T00:45:09.396Z,42.00
2023-01-27T00:50:13.021Z,43.70
2023-01-27T00:55:18.705Z,43.30
2023-01-27T01:00:22.063Z,44.40
2023-01-27T01:05:28.697Z,40.80
2023-01-27T01:10:32.136Z,42.20
2023-01-27T01:15:36.959Z,41.00
2023-01-27T01:20:45.412Z,44.30
2023-01-27T01:26:05.774Z,44.50
2023-01-27T01:31:12.651Z,39.00
2023-01-27T01:36:18.952Z,41.60
2023-01-27T01:41:23.364Z,37.20
2023-01-27T01:46:26.740Z,39.40
2023-01-27T01:51:35.324Z,38.40
2023-01-27T01:56:44.220Z,40.00
2023-01-27T02:01:47.999Z,37.30
2023-01-27T02:07:01.840Z,41.60
2023-01-27T02:12:05.781Z,36.20
2023-01-27T02:17:13.527Z,35.40
2023-01-27T02:22:43.378Z,40.10
2023-01-27T02:27:46.618Z,35.00
2023-01-27T02:32:49.739Z,35.40
2023-01-27T02:37:53.079Z,38.60
2023-01-27T02:42:57.898Z,36.00
2023-01-27T02:48:01.146Z,34.50
2023-01-27T02:53:04.853Z,36.50
2023-01-27T02:58:08.219Z,40.40
2023-01-27T03:03:21.496Z,37.30
2023-01-27T03:08:24.896Z,38.70
2023-01-27T03:13:29.011Z,39.40
2023-01-27T03:18:32.056Z,41.80
2023-01-27T03:23:35.992Z,41.00
2023-01-27T03:28:39.867Z,37.00
2023-01-27T03:33:48.970Z,39.40
2023-01-27T03:39:21.428Z,42.00
2023-01-27T03:44:43.357Z,46.90
2023-01-27T03:49:47.114Z,43.60
2023-01-27T03:54:50.558Z,45.00
2023-01-27T03:59:53.909Z,44.10
2023-01-27T04:05:15.830Z,43.50
2023-01-27T04:10:19.170Z,46.00
2023-01-27T04:15:22.808Z,45.10
2023-01-27T04:20:26.048Z,47.50
2023-01-27T04:25:29.252Z,49.10
2023-01-27T04:30:32.645Z,49.00
2023-01-27T04:35:39.009Z,45.10
2023-01-27T04:40:42.832Z,45.50
2023-01-27T04:45:46.340Z,43.90
2023-01-27T04:50:52.174Z,40.20
2023-01-27T04:56:02.186Z,40.50
2023-01-27T05:01:05.283Z,40.10
2023-01-27T05:06:10.943Z,45.50
2023-01-27T05:11:14.669Z,47.30
2023-01-27T05:16:21.436Z,43.50
2023-01-27T05:21:31.126Z,42.10
2023-01-27T05:26:34.250Z,47.90
2023-01-27T05:31:37.487Z,46.10
2023-01-27T05:36:44.034Z,41.60
2023-01-27T05:41:47.605Z,44.40
2023-01-27T05:46:50.829Z,41.80
2023-01-27T05:51:54.034Z,44.10
2023-01-27T05:56:57.297Z,43.30
2023-01-27T06:02:00.475Z,50.20
2023-01-27T06:07:03.814Z,46.50
2023-01-27T06:12:07.156Z,49.90
2023-01-27T06:17:10.302Z,47.80
2023-01-27T06:22:13.534Z,45.70
2023-01-27T06:27:16.867Z,45.20
2023-01-27T06:32:20.045Z,45.30
2023-01-27T06:37:23.281Z,45.90
2023-01-27T06:42:26.455Z,44.10
2023-01-27T06:47:29.630Z,45.30
2023-01-27T06:52:32.809Z,125.60
2023-01-27T06:57:36.126Z,129.80
2023-01-27T07:02:39.353Z,72.90
2023-01-27T07:07:42.742Z,72.80
2023-01-27T07:12:46.811Z,67.50
2023-01-27T07:17:49.846Z,72.20
2023-01-27T07:22:52.949Z,62.30
2023-01-27T07:28:00.135Z,64.50
2023-01-27T07:33:10.399Z,71.20
2023-01-27T07:38:13.602Z,83.20
2023-01-27T07:43:16.904Z,58.90
2023-01-27T07:48:20.790Z,69.30
2023-01-27T07:53:24.044Z,64.60
2023-01-27T07:58:27.318Z,76.40
2023-01-27T08:03:31.758Z,99.20
2023-01-27T08:08:38.964Z,88.80
2023-01-27T08:13:42.537Z,84.40
2023-01-27T08:18:45.799Z,74.50
2023-01-27T08:23:49.286Z,83.10
2023-01-27T08:28:52.526Z,84.40
2023-01-27T08:33:55.688Z,82.10
2023-01-27T08:38:59.156Z,88.40
2023-01-27T08:44:02.518Z,83.90
2023-01-27T08:49:05.825Z,72.70
2023-01-27T08:54:09.958Z,69.20
2023-01-27T08:59:13.542Z,67.30
2023-01-27T09:04:48.209Z,62.60
2023-01-27T09:10:01.048Z,58.00
2023-01-27T09:15:13.026Z,55.30
2023-01-27T09:20:16.466Z,57.30
2023-01-27T09:25:20.056Z,54.30
2023-01-27T09:30:25.424Z,50.60
2023-01-27T09:35:38.232Z,49.00
2023-01-27T09:40:50.497Z,50.70
2023-01-27T09:51:30.237Z,46.90
2023-01-27T09:56:57.073Z,42.70
2023-01-27T10:02:28.075Z,39.70
2023-01-27T10:07:55.824Z,40.30
2023-01-27T10:13:11.661Z,40.40
2023-01-27T10:18:37.103Z,38.40
2023-01-27T10:24:08.843Z,39.10
2023-01-27T10:29:37.115Z,37.90
2023-01-27T10:34:51.948Z,42.70
2023-01-27T10:40:21.224Z,39.40
2023-01-27T10:45:37.880Z,43.10
2023-01-27T10:50:49.208Z,39.20
2023-01-27T10:56:10.185Z,41.70
2023-01-27T11:01:21.474Z,41.40
2023-01-27T11:06:30.815Z,50.10
2023-01-27T11:11:46.957Z,43.50
2023-01-27T11:16:54.397Z,54.10
2023-01-27T11:22:07.685Z,46.40
2023-01-27T11:27:22.897Z,42.40
2023-01-27T11:32:40.774Z,46.80
2023-01-27T11:37:53.719Z,48.20
2023-01-27T11:42:59.755Z,44.80
2023-01-27T11:48:12.687Z,46.70
2023-01-27T11:53:40.072Z,46.80
2023-01-27T11:58:57.005Z,49.50
2023-01-27T12:04:07.363Z,55.00
2023-01-27T12:09:30.826Z,53.60
2023-01-27T12:14:33.928Z,51.70
2023-01-27T12:19:42.905Z,48.60
2023-01-27T12:24:54.448Z,49.20
2023-01-27T12:30:08.496Z,53.40
2023-01-27T12:35:20.965Z,50.50
2023-01-27T12:45:38.271Z,54.40
2023-01-27T12:50:50.693Z,52.00
2023-01-27T13:01:07.677Z,42.10
2023-01-27T13:06:27.609Z,39.80
2023-01-27T13:11:39.298Z,40.20
2023-01-27T13:16:42.564Z,44.50
2023-01-27T13:21:50.714Z,68.10
2023-01-27T13:26:57.970Z,52.90
2023-01-27T13:32:19.382Z,60.70
2023-01-27T13:37:44.064Z,62.10
2023-01-27T13:43:20.021Z,57.40
2023-01-27T13:48:35.389Z,64.60
2023-01-27T13:53:39.482Z,68.70
2023-01-27T13:59:13.713Z,58.40
2023-01-27T14:04:44.719Z,73.80
2023-01-27T14:10:13.900Z,73.80
2023-01-27T14:15:43.350Z,62.70
2023-01-27T14:21:11.504Z,64.50
2023-01-27T14:26:29.144Z,62.00
2023-01-27T14:32:21.244Z,64.70
2023-01-27T14:37:46.109Z,71.70
2023-01-27T14:43:13.524Z,63.80
2023-01-27T14:48:35.584Z,69.80
2023-01-27T14:53:47.473Z,68.50
2023-01-27T14:59:12.214Z,65.60
2023-01-27T15:04:44.378Z,69.90
2023-01-27T15:10:12.462Z,63.10
2023-01-27T15:15:34.958Z,71.80
2023-01-27T15:21:04.706Z,70.80
2023-01-27T15:26:09.874Z,74.80
2023-01-27T15:31:19.282Z,65.20
2023-01-27T15:36:28.433Z,72.90
2023-01-27T15:41:34.610Z,73.70
2023-01-27T15:46:50.973Z,76.90
2023-01-27T15:52:07.986Z,62.40
2023-01-27T15:57:24.345Z,61.70
2023-01-27T16:02:54.494Z,72.00
2023-01-27T16:08:18.983Z,72.20
2023-01-27T16:13:27.006Z,74.30
2023-01-27T16:18:57.104Z,78.50
2023-01-27T16:24:08.395Z,81.00
2023-01-27T16:29:19.494Z,82.60
2023-01-27T16:34:33.400Z,80.30
2023-01-27T16:40:07.300Z,82.30
2023-01-27T16:45:21.496Z,72.00
2023-01-27T16:50:40.765Z,74.30
2023-01-27T16:55:57.544Z,75.20
2023-01-27T17:01:01.923Z,80.20
2023-01-27T17:06:28.971Z,81.00
2023-01-27T17:11:58.031Z,76.10
2023-01-27T17:17:18.727Z,75.60
2023-01-27T17:22:38.197Z,77.20
2023-01-27T17:27:46.596Z,74.50
2023-01-27T17:33:01.500Z,109.80
2023-01-27T17:38:25.401Z,96.20
2023-01-27T17:43:35.118Z,75.80
2023-01-27T17:48:42.195Z,92.10
2023-01-27T17:53:45.650Z,86.40
2023-01-27T17:58:53.441Z,114.90
2023-01-27T18:04:00.792Z,90.60
2023-01-27T18:09:17.704Z,87.80
2023-01-27T18:14:21.860Z,87.80
2023-01-27T18:19:25.818Z,86.80
2023-01-27T18:24:29.212Z,86.40
2023-01-27T18:29:37.453Z,83.80
2023-01-27T18:34:50.584Z,82.10
2023-01-27T18:39:54.693Z,91.90
2023-01-27T18:45:00.838Z,92.70
2023-01-27T18:50:13.460Z,85.50
2023-01-27T18:55:25.710Z,89.60
2023-01-27T19:05:41.579Z,83.90
2023-01-27T19:10:46.697Z,96.80
2023-01-27T19:15:58.366Z,88.10
2023-01-27T19:21:02.517Z,87.40
2023-01-27T19:26:14.358Z,87.40
2023-01-27T19:31:21.502Z,82.40
2023-01-27T19:36:45.984Z,82.10
2023-01-27T19:41:49.538Z,83.30
2023-01-27T19:46:53.213Z,82.60
2023-01-27T19:51:56.435Z,81.30
2023-01-27T19:56:59.834Z,79.20
2023-01-27T20:02:03.179Z,78.10
2023-01-27T20:07:06.808Z,72.60
2023-01-27T20:12:15.147Z,78.70
2023-01-27T20:17:20.009Z,79.20
2023-01-27T20:22:26.161Z,77.30
2023-01-27T20:27:30.115Z,79.60
2023-01-27T20:32:33.279Z,74.60
2023-01-27T20:37:36.499Z,70.10
2023-01-27T20:42:39.768Z,75.00
2023-01-27T20:47:43.117Z,71.80
2023-01-27T20:52:48.529Z,70.50
2023-01-27T20:57:54.873Z,61.30
2023-01-27T21:02:58.103Z,55.40
2023-01-27T21:08:01.586Z,59.70
2023-01-27T21:13:04.982Z,60.30
2023-01-27T21:18:08.244Z,55.60
2023-01-27T21:23:11.778Z,56.90
2023-01-27T21:28:15.273Z,56.80
2023-01-27T21:33:18.437Z,61.70
2023-01-27T21:38:21.591Z,58.20
2023-01-27T21:43:43.898Z,56.10
2023-01-27T21:48:47.912Z,51.30
2023-01-27T21:53:51.056Z,51.90
2023-01-27T21:58:54.294Z,53.80
2023-01-27T22:03:57.483Z,53.20
2023-01-27T22:09:00.791Z,58.10
2023-01-27T22:14:04.185Z,53.70
2023-01-27T22:19:07.380Z,55.20
2023-01-27T22:24:10.543Z,51.80
2023-01-27T22:29:28.743Z,57.30
2023-01-27T22:34:44.700Z,57.70
2023-01-27T22:39:47.859Z,59.90
2023-01-27T22:44:52.424Z,55.40
2023-01-27T22:49:55.524Z,54.20
2023-01-27T22:54:58.902Z,57.80
2023-01-27T23:00:02.324Z,56.30
2023-01-27T23:05:06.139Z,58.40
2023-01-27T23:10:11.205Z,52.40
2023-01-27T23:15:15.034Z,54.40
2023-01-27T23:20:18.618Z,52.90
2023-01-27T23:25:22.246Z,50.60
2023-01-27T23:30:26.839Z,51.20
2023-01-27T23:35:30.095Z,54.90
2023-01-27T23:40:33.977Z,53.70
2023-01-27T23:45:37.271Z,52.40
2023-01-27T23:50:40.399Z,47.90
2023-01-27T23:55:43.988Z,50.50
